USY099P EDFH-LCLK
Flight info
| Callsign | USY099P |
|---|---|
| Flight time | 3h 18m |
| Altitude | 37000 |
| Route | ULKIG2S ULKIG Z100 RUDUS L984 BOMBI DCT DETEV DCT DINKU DCT BESNI DCT LATLO DCT OBEDI DCT VABEK UL603 OLOTA DCT RUGAS DCT PEREN DCT RIKSO UP14 ZAFLE DCT TOMBI M855 DASNI M601 BONEK |
| Aircraft | A343/H-SDE1E2E3GHIJ4J5LM1P2RWXYZ/SB1D1 |
Departure
| Time | 2026-05-05 14:09 |
|---|---|
| Airport | Frankfurt-Hahn Airport (EDFH) |
Arrival
| Time | 2026-05-05 17:27 |
|---|---|
| Airport | Larnaca International Airport (LCLK) |
| Time | Latitude | Longitude | Altitude | Speed | Heading |
|---|---|---|---|---|---|
| 2026-05-05 13:30 | 49.95209 | 7.27372 | 1605 ft | 0 kts | 122° |
| 2026-05-05 13:58 | 49.95216 | 7.27354 | 1620 ft | 3 kts | 123° |
| 2026-05-05 13:59 | 49.95240 | 7.27301 | 1618 ft | 3 kts | 123° |
| 2026-05-05 13:59 | 49.95249 | 7.27278 | 1618 ft | 3 kts | 103° |
| 2026-05-05 14:00 | 49.95235 | 7.27229 | 1609 ft | 3 kts | 34° |
| 2026-05-05 14:00 | 49.95222 | 7.27215 | 1619 ft | 0 kts | 32° |
| 2026-05-05 14:04 | 49.95225 | 7.27219 | 1619 ft | 2 kts | 32° |
| 2026-05-05 14:05 | 49.95246 | 7.27239 | 1619 ft | 6 kts | 32° |
| 2026-05-05 14:05 | 49.95296 | 7.27288 | 1616 ft | 11 kts | 32° |
| 2026-05-05 14:05 | 49.95366 | 7.27357 | 1618 ft | 13 kts | 32° |
| 2026-05-05 14:05 | 49.95445 | 7.27435 | 1616 ft | 15 kts | 32° |
| 2026-05-05 14:06 | 49.95530 | 7.27519 | 1618 ft | 11 kts | 32° |
| 2026-05-05 14:06 | 49.95599 | 7.27529 | 1615 ft | 11 kts | 334° |
| 2026-05-05 14:06 | 49.95653 | 7.27477 | 1617 ft | 8 kts | 328° |
| 2026-05-05 14:06 | 49.95690 | 7.27442 | 1615 ft | 0 kts | 328° |
| 2026-05-05 14:07 | 49.95697 | 7.27434 | 1613 ft | 3 kts | 328° |
| 2026-05-05 14:07 | 49.95730 | 7.27396 | 1611 ft | 9 kts | 317° |
| 2026-05-05 14:07 | 49.95763 | 7.27299 | 1605 ft | 7 kts | 276° |
| 2026-05-05 14:07 | 49.95736 | 7.27242 | 1613 ft | 7 kts | 212° |
| 2026-05-05 14:08 | 49.95670 | 7.27176 | 1611 ft | 22 kts | 213° |
| 2026-05-05 14:08 | 49.95344 | 7.26857 | 1614 ft | 89 kts | 212° |
| 2026-05-05 14:08 | 49.94651 | 7.26176 | 1632 ft | 145 kts | 213° |
| 2026-05-05 14:08 | 49.93742 | 7.25273 | 2109 ft | 160 kts | 212° |
| 2026-05-05 14:09 | 49.92798 | 7.24326 | 2825 ft | 169 kts | 214° |
| 2026-05-05 14:09 | 49.91741 | 7.23238 | 3276 ft | 198 kts | 213° |
| 2026-05-05 14:09 | 49.90506 | 7.21993 | 3916 ft | 222 kts | 213° |
| 2026-05-05 14:09 | 49.89177 | 7.20684 | 4941 ft | 229 kts | 213° |
| 2026-05-05 14:10 | 49.88159 | 7.18776 | 5977 ft | 239 kts | 250° |
| 2026-05-05 14:10 | 49.88078 | 7.16167 | 6963 ft | 254 kts | 283° |
| 2026-05-05 14:10 | 49.89050 | 7.13861 | 7868 ft | 264 kts | 320° |
| 2026-05-05 14:10 | 49.90758 | 7.12837 | 8615 ft | 269 kts | 354° |
| 2026-05-05 14:11 | 49.92605 | 7.13312 | 9309 ft | 276 kts | 28° |
| 2026-05-05 14:11 | 49.93987 | 7.15364 | 9865 ft | 282 kts | 62° |
| 2026-05-05 14:11 | 49.94814 | 7.18200 | 10231 ft | 297 kts | 73° |
| 2026-05-05 14:11 | 49.95258 | 7.21383 | 10528 ft | 314 kts | 87° |
| 2026-05-05 14:12 | 49.95013 | 7.24816 | 10839 ft | 328 kts | 105° |
| 2026-05-05 14:12 | 49.94280 | 7.28236 | 11173 ft | 341 kts | 112° |
| 2026-05-05 14:12 | 49.93443 | 7.31755 | 11583 ft | 352 kts | 110° |
| 2026-05-05 14:12 | 49.92806 | 7.35460 | 12140 ft | 358 kts | 105° |
| 2026-05-05 14:13 | 49.92189 | 7.39232 | 12766 ft | 361 kts | 106° |
| 2026-05-05 14:13 | 49.91562 | 7.43022 | 13406 ft | 364 kts | 105° |
| 2026-05-05 14:13 | 49.91249 | 7.46932 | 14029 ft | 368 kts | 92° |
| 2026-05-05 14:13 | 49.91532 | 7.50904 | 14623 ft | 373 kts | 78° |
| 2026-05-05 14:14 | 49.92282 | 7.54784 | 15156 ft | 378 kts | 73° |
| 2026-05-05 14:14 | 49.93205 | 7.58627 | 15647 ft | 383 kts | 70° |
| 2026-05-05 14:14 | 49.94186 | 7.62490 | 16189 ft | 387 kts | 70° |
| 2026-05-05 14:14 | 49.95176 | 7.66396 | 16840 ft | 390 kts | 70° |
| 2026-05-05 14:15 | 49.96163 | 7.70327 | 17497 ft | 392 kts | 70° |
| 2026-05-05 14:15 | 49.97136 | 7.74242 | 18135 ft | 395 kts | 70° |
| 2026-05-05 14:15 | 49.98084 | 7.78280 | 18610 ft | 400 kts | 72° |
| 2026-05-05 14:15 | 49.98969 | 7.82411 | 19100 ft | 405 kts | 74° |
| 2026-05-05 14:16 | 49.99793 | 7.86634 | 19609 ft | 409 kts | 76° |
| 2026-05-05 14:16 | 50.00633 | 7.90867 | 20165 ft | 411 kts | 74° |
| 2026-05-05 14:16 | 50.01573 | 7.95088 | 20801 ft | 414 kts | 72° |
| 2026-05-05 14:16 | 50.02588 | 7.99306 | 21404 ft | 417 kts | 72° |
| 2026-05-05 14:17 | 50.03595 | 8.03547 | 22009 ft | 420 kts | 72° |
| 2026-05-05 14:17 | 50.04423 | 8.07868 | 22479 ft | 423 kts | 82° |
| 2026-05-05 14:17 | 50.04744 | 8.12412 | 23037 ft | 423 kts | 89° |
| 2026-05-05 14:17 | 50.04925 | 8.16997 | 23471 ft | 428 kts | 90° |
| 2026-05-05 14:18 | 50.05079 | 8.21640 | 23831 ft | 432 kts | 90° |
| 2026-05-05 14:18 | 50.05199 | 8.26327 | 24219 ft | 434 kts | 91° |
| 2026-05-05 14:18 | 50.05271 | 8.31029 | 24665 ft | 436 kts | 92° |
| 2026-05-05 14:18 | 50.05296 | 8.35763 | 25111 ft | 437 kts | 93° |
| 2026-05-05 14:19 | 50.05270 | 8.40491 | 25596 ft | 439 kts | 94° |
| 2026-05-05 14:19 | 50.05212 | 8.45261 | 26017 ft | 441 kts | 94° |
| 2026-05-05 14:19 | 50.05191 | 8.50057 | 26435 ft | 444 kts | 94° |
| 2026-05-05 14:19 | 50.05193 | 8.54873 | 26858 ft | 446 kts | 94° |
| 2026-05-05 14:20 | 50.05209 | 8.59720 | 27290 ft | 448 kts | 93° |
| 2026-05-05 14:20 | 50.05241 | 8.64574 | 27728 ft | 450 kts | 93° |
| 2026-05-05 14:20 | 50.05303 | 8.69452 | 28161 ft | 451 kts | 92° |
| 2026-05-05 14:20 | 50.05372 | 8.74298 | 28509 ft | 454 kts | 94° |
| 2026-05-05 14:21 | 50.05112 | 8.79194 | 28761 ft | 455 kts | 103° |
| 2026-05-05 14:21 | 50.04340 | 8.83964 | 29007 ft | 455 kts | 113° |
| 2026-05-05 14:21 | 50.03128 | 8.88481 | 29470 ft | 452 kts | 118° |
| 2026-05-05 14:21 | 50.01814 | 8.92939 | 29874 ft | 453 kts | 118° |
| 2026-05-05 14:22 | 50.00474 | 8.97363 | 30229 ft | 455 kts | 119° |
| 2026-05-05 14:22 | 49.99093 | 9.01796 | 30563 ft | 456 kts | 120° |
| 2026-05-05 14:22 | 49.97679 | 9.06206 | 30905 ft | 457 kts | 121° |
| 2026-05-05 14:22 | 49.96225 | 9.10604 | 31265 ft | 458 kts | 122° |
| 2026-05-05 14:23 | 49.94747 | 9.15000 | 31595 ft | 459 kts | 122° |
| 2026-05-05 14:23 | 49.93275 | 9.19405 | 31964 ft | 460 kts | 121° |
| 2026-05-05 14:23 | 49.91857 | 9.23857 | 32438 ft | 459 kts | 120° |
| 2026-05-05 14:23 | 49.90478 | 9.28317 | 32892 ft | 458 kts | 120° |
| 2026-05-05 14:24 | 49.89109 | 9.32767 | 33319 ft | 457 kts | 120° |
| 2026-05-05 14:24 | 49.87735 | 9.37202 | 33721 ft | 456 kts | 120° |
| 2026-05-05 14:24 | 49.86367 | 9.41578 | 34072 ft | 455 kts | 120° |
| 2026-05-05 14:24 | 49.84978 | 9.45987 | 34359 ft | 455 kts | 120° |
| 2026-05-05 14:25 | 49.83530 | 9.50339 | 34661 ft | 454 kts | 124° |
| 2026-05-05 14:25 | 49.81779 | 9.54387 | 34916 ft | 450 kts | 132° |
| 2026-05-05 14:25 | 49.79708 | 9.58003 | 35107 ft | 449 kts | 138° |
| 2026-05-05 14:25 | 49.77498 | 9.61399 | 35430 ft | 447 kts | 140° |
| 2026-05-05 14:26 | 49.75241 | 9.64710 | 35741 ft | 446 kts | 141° |
| 2026-05-05 14:26 | 49.72966 | 9.67976 | 36008 ft | 447 kts | 141° |
| 2026-05-05 14:26 | 49.70700 | 9.71205 | 36261 ft | 448 kts | 141° |
| 2026-05-05 14:26 | 49.68404 | 9.74479 | 36553 ft | 448 kts | 141° |
| 2026-05-05 14:27 | 49.66118 | 9.77750 | 36873 ft | 449 kts | 141° |
| 2026-05-05 14:27 | 49.63824 | 9.81040 | 37206 ft | 450 kts | 141° |
| 2026-05-05 14:27 | 49.61529 | 9.84338 | 37518 ft | 450 kts | 141° |
| 2026-05-05 14:27 | 49.59237 | 9.87632 | 37819 ft | 451 kts | 141° |
| 2026-05-05 14:28 | 49.56938 | 9.90935 | 38100 ft | 451 kts | 141° |
| 2026-05-05 14:28 | 49.54639 | 9.94234 | 38284 ft | 453 kts | 141° |
| 2026-05-05 14:28 | 49.52327 | 9.97545 | 38474 ft | 454 kts | 141° |
| 2026-05-05 14:28 | 49.50039 | 10.00818 | 38676 ft | 455 kts | 141° |
| 2026-05-05 14:29 | 49.47684 | 10.04181 | 38822 ft | 457 kts | 141° |
| 2026-05-05 14:29 | 49.45372 | 10.07477 | 38860 ft | 460 kts | 141° |
| 2026-05-05 14:29 | 49.40688 | 10.14146 | 38841 ft | 458 kts | 141° |
| 2026-05-05 14:30 | 49.36004 | 10.20798 | 38846 ft | 458 kts | 141° |
| 2026-05-05 14:30 | 49.31341 | 10.27398 | 38836 ft | 458 kts | 141° |
| 2026-05-05 14:31 | 49.26643 | 10.34030 | 38811 ft | 459 kts | 141° |
| 2026-05-05 14:31 | 49.22732 | 10.39542 | 38812 ft | 460 kts | 141° |
| 2026-05-05 14:32 | 49.18111 | 10.46339 | 38827 ft | 460 kts | 139° |
| 2026-05-05 14:32 | 49.13550 | 10.53202 | 38825 ft | 460 kts | 139° |
| 2026-05-05 14:33 | 49.08968 | 10.60044 | 38833 ft | 460 kts | 139° |
| 2026-05-05 14:33 | 49.04377 | 10.66836 | 38818 ft | 460 kts | 140° |
| 2026-05-05 14:34 | 48.99773 | 10.73615 | 38827 ft | 460 kts | 140° |
| 2026-05-05 14:34 | 48.95186 | 10.80350 | 38815 ft | 461 kts | 140° |
| 2026-05-05 14:35 | 48.90561 | 10.87122 | 38817 ft | 461 kts | 140° |
| 2026-05-05 14:35 | 48.85935 | 10.93880 | 38801 ft | 461 kts | 140° |
| 2026-05-05 14:36 | 48.81309 | 11.00621 | 38800 ft | 461 kts | 140° |
| 2026-05-05 14:36 | 48.76701 | 11.07317 | 38795 ft | 461 kts | 140° |
| 2026-05-05 14:37 | 48.72054 | 11.14051 | 38801 ft | 462 kts | 140° |
| 2026-05-05 14:37 | 48.67394 | 11.20787 | 38801 ft | 462 kts | 140° |
| 2026-05-05 14:38 | 48.62759 | 11.27525 | 38778 ft | 463 kts | 138° |
| 2026-05-05 14:38 | 48.58392 | 11.34727 | 38768 ft | 465 kts | 135° |
| 2026-05-05 14:39 | 48.54110 | 11.42083 | 38778 ft | 466 kts | 135° |
| 2026-05-05 14:39 | 48.49788 | 11.49370 | 38774 ft | 466 kts | 136° |
| 2026-05-05 14:40 | 48.45421 | 11.56605 | 38779 ft | 466 kts | 136° |
| 2026-05-05 14:40 | 48.41041 | 11.63812 | 38775 ft | 466 kts | 136° |
| 2026-05-05 14:41 | 48.36679 | 11.70970 | 38768 ft | 467 kts | 136° |
| 2026-05-05 14:41 | 48.32276 | 11.78179 | 38775 ft | 468 kts | 136° |
| 2026-05-05 14:42 | 48.27869 | 11.85378 | 38772 ft | 468 kts | 136° |
| 2026-05-05 14:42 | 48.23485 | 11.92522 | 38774 ft | 468 kts | 136° |
| 2026-05-05 14:43 | 48.19072 | 11.99691 | 38780 ft | 468 kts | 136° |
| 2026-05-05 14:43 | 48.14653 | 12.06852 | 38775 ft | 468 kts | 136° |
| 2026-05-05 14:44 | 48.10217 | 12.14017 | 38780 ft | 469 kts | 137° |
| 2026-05-05 14:44 | 48.05772 | 12.21181 | 38774 ft | 470 kts | 137° |
| 2026-05-05 14:45 | 48.01321 | 12.28335 | 38774 ft | 470 kts | 137° |
| 2026-05-05 14:45 | 47.96899 | 12.35420 | 38767 ft | 470 kts | 136° |
| 2026-05-05 14:46 | 47.92427 | 12.42568 | 38771 ft | 470 kts | 136° |
| 2026-05-05 14:46 | 47.87952 | 12.49702 | 38768 ft | 470 kts | 137° |
| 2026-05-05 14:47 | 47.83478 | 12.56814 | 38768 ft | 470 kts | 137° |
| 2026-05-05 14:47 | 47.79021 | 12.63880 | 38760 ft | 470 kts | 137° |
| 2026-05-05 14:48 | 47.74539 | 12.70968 | 38754 ft | 470 kts | 137° |
| 2026-05-05 14:48 | 47.70048 | 12.78048 | 38752 ft | 472 kts | 136° |
| 2026-05-05 14:49 | 47.65510 | 12.85101 | 38754 ft | 472 kts | 138° |
| 2026-05-05 14:49 | 47.60879 | 12.91905 | 38760 ft | 471 kts | 139° |
| 2026-05-05 14:50 | 47.56202 | 12.98717 | 38765 ft | 471 kts | 139° |
| 2026-05-05 14:50 | 47.51549 | 13.05531 | 38769 ft | 471 kts | 139° |
| 2026-05-05 14:51 | 47.46890 | 13.12370 | 38787 ft | 472 kts | 139° |
| 2026-05-05 14:51 | 47.42226 | 13.19204 | 38803 ft | 472 kts | 138° |
| 2026-05-05 14:52 | 47.37554 | 13.26030 | 38817 ft | 473 kts | 138° |
| 2026-05-05 14:52 | 47.32934 | 13.32964 | 38841 ft | 475 kts | 133° |
| 2026-05-05 14:53 | 47.28816 | 13.40541 | 38852 ft | 477 kts | 131° |
| 2026-05-05 14:53 | 47.24764 | 13.48314 | 38863 ft | 479 kts | 130° |
| 2026-05-05 14:54 | 47.20716 | 13.56112 | 38876 ft | 479 kts | 131° |
| 2026-05-05 14:54 | 47.16655 | 13.63883 | 38876 ft | 479 kts | 130° |
| 2026-05-05 14:55 | 47.12566 | 13.71666 | 38900 ft | 480 kts | 130° |
| 2026-05-05 14:55 | 47.08472 | 13.79435 | 38908 ft | 481 kts | 130° |
| 2026-05-05 14:56 | 47.04388 | 13.87161 | 38902 ft | 481 kts | 130° |
| 2026-05-05 14:56 | 47.00281 | 13.94912 | 38924 ft | 481 kts | 131° |
| 2026-05-05 14:57 | 46.96168 | 14.02649 | 38920 ft | 482 kts | 131° |
| 2026-05-05 14:57 | 46.92046 | 14.10380 | 38915 ft | 482 kts | 131° |
| 2026-05-05 14:58 | 46.87921 | 14.18102 | 38928 ft | 481 kts | 131° |
| 2026-05-05 14:58 | 46.83793 | 14.25802 | 38933 ft | 481 kts | 131° |
| 2026-05-05 14:59 | 46.79668 | 14.33477 | 38938 ft | 481 kts | 131° |
| 2026-05-05 14:59 | 46.75533 | 14.41148 | 38937 ft | 481 kts | 131° |
| 2026-05-05 15:00 | 46.72087 | 14.47523 | 38940 ft | 482 kts | 131° |
| 2026-05-05 15:00 | 46.67257 | 14.56439 | 38942 ft | 482 kts | 131° |
| 2026-05-05 15:01 | 46.63098 | 14.64094 | 38944 ft | 481 kts | 131° |
| 2026-05-05 15:01 | 46.58937 | 14.71729 | 38960 ft | 481 kts | 131° |
| 2026-05-05 15:02 | 46.54769 | 14.79354 | 38962 ft | 482 kts | 131° |
| 2026-05-05 15:02 | 46.50622 | 14.86920 | 38948 ft | 482 kts | 131° |
| 2026-05-05 15:03 | 46.46439 | 14.94532 | 38962 ft | 482 kts | 131° |
| 2026-05-05 15:03 | 46.42253 | 15.02128 | 38955 ft | 482 kts | 131° |
| 2026-05-05 15:04 | 46.38055 | 15.09726 | 38951 ft | 483 kts | 131° |
| 2026-05-05 15:04 | 46.33860 | 15.17300 | 38973 ft | 484 kts | 131° |
| 2026-05-05 15:05 | 46.27532 | 15.28683 | 38949 ft | 484 kts | 131° |
| 2026-05-05 15:06 | 46.23303 | 15.36266 | 38965 ft | 484 kts | 131° |
| 2026-05-05 15:06 | 46.19062 | 15.43849 | 38969 ft | 485 kts | 131° |
| 2026-05-05 15:07 | 46.14845 | 15.51367 | 38972 ft | 485 kts | 131° |
| 2026-05-05 15:07 | 46.10591 | 15.58932 | 38963 ft | 485 kts | 131° |
| 2026-05-05 15:08 | 46.06326 | 15.66494 | 38964 ft | 487 kts | 131° |
| 2026-05-05 15:08 | 46.02050 | 15.74057 | 38963 ft | 487 kts | 131° |
| 2026-05-05 15:09 | 45.97762 | 15.81620 | 38966 ft | 487 kts | 131° |
| 2026-05-05 15:09 | 45.93473 | 15.89164 | 38968 ft | 487 kts | 131° |
| 2026-05-05 15:10 | 45.89178 | 15.96698 | 38981 ft | 487 kts | 131° |
| 2026-05-05 15:10 | 45.84886 | 16.04207 | 38991 ft | 487 kts | 131° |
| 2026-05-05 15:11 | 45.80614 | 16.11661 | 38993 ft | 487 kts | 132° |
| 2026-05-05 15:11 | 45.76311 | 16.19149 | 38994 ft | 487 kts | 132° |
| 2026-05-05 15:12 | 45.71999 | 16.26632 | 38990 ft | 487 kts | 132° |
| 2026-05-05 15:12 | 45.67682 | 16.34105 | 38972 ft | 487 kts | 132° |
| 2026-05-05 15:13 | 45.63359 | 16.41567 | 38970 ft | 487 kts | 132° |
| 2026-05-05 15:13 | 45.59028 | 16.49025 | 38973 ft | 488 kts | 132° |
| 2026-05-05 15:14 | 45.54684 | 16.56483 | 38974 ft | 488 kts | 132° |
| 2026-05-05 15:14 | 45.50340 | 16.63923 | 38973 ft | 488 kts | 132° |
| 2026-05-05 15:15 | 45.45990 | 16.71351 | 38973 ft | 488 kts | 132° |
| 2026-05-05 15:15 | 45.41666 | 16.78717 | 38974 ft | 488 kts | 132° |
| 2026-05-05 15:16 | 45.37305 | 16.86127 | 38971 ft | 488 kts | 132° |
| 2026-05-05 15:16 | 45.32937 | 16.93530 | 38971 ft | 488 kts | 132° |
| 2026-05-05 15:17 | 45.28570 | 17.00910 | 38963 ft | 488 kts | 132° |
| 2026-05-05 15:17 | 45.24185 | 17.08300 | 38964 ft | 490 kts | 132° |
| 2026-05-05 15:18 | 45.19790 | 17.15688 | 38960 ft | 490 kts | 132° |
| 2026-05-05 15:18 | 45.15413 | 17.23029 | 38958 ft | 490 kts | 132° |
| 2026-05-05 15:19 | 45.11010 | 17.30393 | 38951 ft | 490 kts | 132° |
| 2026-05-05 15:19 | 45.06605 | 17.37740 | 38952 ft | 489 kts | 132° |
| 2026-05-05 15:20 | 45.02935 | 17.43847 | 38948 ft | 489 kts | 132° |
| 2026-05-05 15:20 | 44.98517 | 17.51184 | 38962 ft | 491 kts | 132° |
| 2026-05-05 15:21 | 44.94079 | 17.58531 | 38958 ft | 492 kts | 132° |
| 2026-05-05 15:21 | 44.89626 | 17.65884 | 38953 ft | 492 kts | 132° |
| 2026-05-05 15:22 | 44.85204 | 17.73168 | 38954 ft | 492 kts | 132° |
| 2026-05-05 15:22 | 44.80749 | 17.80486 | 38950 ft | 491 kts | 132° |
| 2026-05-05 15:23 | 44.76296 | 17.87784 | 38947 ft | 491 kts | 132° |
| 2026-05-05 15:23 | 44.71840 | 17.95067 | 38954 ft | 492 kts | 133° |
| 2026-05-05 15:24 | 44.67360 | 18.02369 | 38955 ft | 493 kts | 133° |
| 2026-05-05 15:24 | 44.62875 | 18.09663 | 38955 ft | 493 kts | 132° |
| 2026-05-05 15:25 | 44.58409 | 18.16907 | 38956 ft | 493 kts | 132° |
| 2026-05-05 15:25 | 44.53915 | 18.24176 | 38957 ft | 493 kts | 132° |
| 2026-05-05 15:26 | 44.49407 | 18.31451 | 38963 ft | 493 kts | 132° |
| 2026-05-05 15:26 | 44.44917 | 18.38676 | 38963 ft | 494 kts | 132° |
| 2026-05-05 15:27 | 44.40394 | 18.45936 | 38968 ft | 495 kts | 132° |
| 2026-05-05 15:27 | 44.35858 | 18.53199 | 38968 ft | 495 kts | 133° |
| 2026-05-05 15:28 | 44.31320 | 18.60446 | 38969 ft | 495 kts | 133° |
| 2026-05-05 15:28 | 44.26812 | 18.67628 | 38976 ft | 495 kts | 133° |
| 2026-05-05 15:29 | 44.22265 | 18.74854 | 38975 ft | 495 kts | 133° |
| 2026-05-05 15:29 | 44.17710 | 18.82074 | 38990 ft | 496 kts | 133° |
| 2026-05-05 15:30 | 44.13152 | 18.89279 | 38986 ft | 496 kts | 133° |
| 2026-05-05 15:30 | 44.08611 | 18.96441 | 38997 ft | 496 kts | 133° |
| 2026-05-05 15:31 | 44.04035 | 19.03638 | 38993 ft | 496 kts | 133° |
| 2026-05-05 15:31 | 43.99457 | 19.10820 | 38985 ft | 496 kts | 133° |
| 2026-05-05 15:32 | 43.94876 | 19.17991 | 38989 ft | 495 kts | 132° |
| 2026-05-05 15:32 | 43.90313 | 19.25114 | 38989 ft | 496 kts | 133° |
| 2026-05-05 15:33 | 43.85705 | 19.32295 | 38992 ft | 497 kts | 133° |
| 2026-05-05 15:33 | 43.81128 | 19.39403 | 38992 ft | 497 kts | 133° |
| 2026-05-05 15:34 | 43.76518 | 19.46543 | 38990 ft | 497 kts | 133° |
| 2026-05-05 15:34 | 43.71894 | 19.53687 | 38985 ft | 497 kts | 133° |
| 2026-05-05 15:35 | 43.67277 | 19.60804 | 38982 ft | 497 kts | 133° |
| 2026-05-05 15:35 | 43.64964 | 19.64365 | 39097 ft | 497 kts | 133° |
| 2026-05-05 15:35 | 43.62652 | 19.67920 | 39343 ft | 496 kts | 133° |
| 2026-05-05 15:35 | 43.60350 | 19.71455 | 39647 ft | 494 kts | 133° |
| 2026-05-05 15:36 | 43.58082 | 19.74932 | 39905 ft | 493 kts | 133° |
| 2026-05-05 15:36 | 43.55789 | 19.78441 | 40160 ft | 492 kts | 133° |
| 2026-05-05 15:36 | 43.53492 | 19.81952 | 40392 ft | 492 kts | 133° |
| 2026-05-05 15:36 | 43.51200 | 19.85452 | 40620 ft | 492 kts | 133° |
| 2026-05-05 15:37 | 43.48901 | 19.88959 | 40867 ft | 492 kts | 133° |
| 2026-05-05 15:37 | 43.46604 | 19.92458 | 40985 ft | 494 kts | 133° |
| 2026-05-05 15:37 | 43.44286 | 19.95985 | 41005 ft | 499 kts | 133° |
| 2026-05-05 15:38 | 43.39616 | 20.03079 | 40994 ft | 498 kts | 133° |
| 2026-05-05 15:38 | 43.34983 | 20.10101 | 41005 ft | 498 kts | 133° |
| 2026-05-05 15:39 | 43.30311 | 20.17162 | 41004 ft | 499 kts | 133° |
| 2026-05-05 15:39 | 43.25640 | 20.24204 | 41001 ft | 499 kts | 133° |
| 2026-05-05 15:40 | 43.20971 | 20.31228 | 41010 ft | 498 kts | 133° |
| 2026-05-05 15:40 | 43.16322 | 20.38203 | 41004 ft | 498 kts | 133° |
| 2026-05-05 15:41 | 43.11641 | 20.45208 | 41006 ft | 499 kts | 133° |
| 2026-05-05 15:41 | 43.06943 | 20.52223 | 41013 ft | 500 kts | 133° |
| 2026-05-05 15:42 | 43.02233 | 20.59239 | 41015 ft | 501 kts | 133° |
| 2026-05-05 15:42 | 42.97461 | 20.66158 | 41013 ft | 500 kts | 136° |
| 2026-05-05 15:43 | 42.92401 | 20.72693 | 41021 ft | 500 kts | 138° |
| 2026-05-05 15:43 | 42.87340 | 20.79119 | 41023 ft | 500 kts | 137° |
| 2026-05-05 15:44 | 42.82283 | 20.85631 | 41026 ft | 499 kts | 137° |
| 2026-05-05 15:44 | 42.77261 | 20.92146 | 41027 ft | 499 kts | 137° |
| 2026-05-05 15:45 | 42.72239 | 20.98660 | 41024 ft | 498 kts | 137° |
| 2026-05-05 15:45 | 42.67209 | 21.05165 | 41020 ft | 499 kts | 137° |
| 2026-05-05 15:46 | 42.62176 | 21.11657 | 41011 ft | 499 kts | 137° |
| 2026-05-05 15:46 | 42.57132 | 21.18144 | 41021 ft | 500 kts | 137° |
| 2026-05-05 15:47 | 42.52074 | 21.24636 | 41022 ft | 500 kts | 137° |
| 2026-05-05 15:47 | 42.47036 | 21.31087 | 41019 ft | 500 kts | 137° |
| 2026-05-05 15:48 | 42.41968 | 21.37563 | 41019 ft | 501 kts | 137° |
| 2026-05-05 15:48 | 42.36893 | 21.44030 | 40993 ft | 500 kts | 137° |
| 2026-05-05 15:49 | 42.31807 | 21.50496 | 41002 ft | 502 kts | 137° |
| 2026-05-05 15:49 | 42.26706 | 21.56967 | 40994 ft | 503 kts | 137° |
| 2026-05-05 15:50 | 42.21642 | 21.63387 | 40994 ft | 503 kts | 137° |
| 2026-05-05 15:50 | 42.16644 | 21.69987 | 40992 ft | 503 kts | 135° |
| 2026-05-05 15:51 | 42.11682 | 21.76645 | 40991 ft | 503 kts | 135° |
| 2026-05-05 15:51 | 42.06700 | 21.83282 | 40993 ft | 504 kts | 136° |
| 2026-05-05 15:52 | 42.01697 | 21.89896 | 40992 ft | 504 kts | 136° |
| 2026-05-05 15:52 | 41.96686 | 21.96493 | 40992 ft | 504 kts | 136° |
| 2026-05-05 15:53 | 41.91669 | 22.03083 | 40991 ft | 504 kts | 136° |
| 2026-05-05 15:53 | 41.86650 | 22.09663 | 40995 ft | 504 kts | 136° |
| 2026-05-05 15:54 | 41.81630 | 22.16229 | 40993 ft | 504 kts | 136° |
| 2026-05-05 15:54 | 41.76637 | 22.22744 | 40999 ft | 504 kts | 136° |
| 2026-05-05 15:55 | 41.71593 | 22.29311 | 40997 ft | 504 kts | 136° |
| 2026-05-05 15:55 | 41.66549 | 22.35863 | 40999 ft | 504 kts | 136° |
| 2026-05-05 15:56 | 41.61532 | 22.42365 | 40999 ft | 504 kts | 136° |
| 2026-05-05 15:56 | 41.56490 | 22.48883 | 40994 ft | 503 kts | 136° |
| 2026-05-05 15:57 | 41.51454 | 22.55381 | 41001 ft | 503 kts | 136° |
| 2026-05-05 15:57 | 41.46419 | 22.61861 | 40998 ft | 503 kts | 136° |
| 2026-05-05 15:58 | 41.41369 | 22.68345 | 40996 ft | 503 kts | 136° |
| 2026-05-05 15:58 | 41.36360 | 22.74764 | 40998 ft | 503 kts | 136° |
| 2026-05-05 15:59 | 41.31528 | 22.81518 | 40998 ft | 503 kts | 130° |
| 2026-05-05 15:59 | 41.27052 | 22.88684 | 40993 ft | 504 kts | 128° |
| 2026-05-05 16:00 | 41.22662 | 22.95866 | 40994 ft | 504 kts | 128° |
| 2026-05-05 16:00 | 41.18233 | 23.03105 | 40995 ft | 504 kts | 129° |
| 2026-05-05 16:01 | 41.13796 | 23.10315 | 40992 ft | 504 kts | 129° |
| 2026-05-05 16:01 | 41.09344 | 23.17519 | 40991 ft | 504 kts | 129° |
| 2026-05-05 16:02 | 41.04896 | 23.24697 | 40992 ft | 504 kts | 129° |
| 2026-05-05 16:02 | 41.00467 | 23.31831 | 40993 ft | 504 kts | 129° |
| 2026-05-05 16:03 | 40.95996 | 23.39015 | 40996 ft | 506 kts | 129° |
| 2026-05-05 16:03 | 40.91508 | 23.46209 | 40997 ft | 506 kts | 129° |
| 2026-05-05 16:04 | 40.87029 | 23.53372 | 41002 ft | 505 kts | 129° |
| 2026-05-05 16:04 | 40.82576 | 23.60476 | 41002 ft | 505 kts | 129° |
| 2026-05-05 16:05 | 40.78077 | 23.67639 | 41007 ft | 505 kts | 129° |
| 2026-05-05 16:05 | 40.73589 | 23.74765 | 41011 ft | 505 kts | 129° |
| 2026-05-05 16:06 | 40.69083 | 23.81904 | 41014 ft | 506 kts | 129° |
| 2026-05-05 16:06 | 40.64604 | 23.88985 | 41018 ft | 507 kts | 129° |
| 2026-05-05 16:07 | 40.60080 | 23.96120 | 41018 ft | 507 kts | 129° |
| 2026-05-05 16:07 | 40.55451 | 24.03134 | 41023 ft | 507 kts | 131° |
| 2026-05-05 16:08 | 40.50699 | 24.09926 | 41028 ft | 507 kts | 132° |
| 2026-05-05 16:08 | 40.45923 | 24.16745 | 41026 ft | 507 kts | 132° |
| 2026-05-05 16:09 | 40.41171 | 24.23581 | 41026 ft | 507 kts | 131° |
| 2026-05-05 16:09 | 40.36431 | 24.30417 | 41027 ft | 507 kts | 131° |
| 2026-05-05 16:10 | 40.32451 | 24.36148 | 41029 ft | 507 kts | 131° |
| 2026-05-05 16:10 | 40.27727 | 24.42935 | 41032 ft | 507 kts | 132° |
| 2026-05-05 16:11 | 40.22966 | 24.49757 | 41031 ft | 507 kts | 132° |
| 2026-05-05 16:12 | 40.13436 | 24.63363 | 41028 ft | 507 kts | 132° |
| 2026-05-05 16:13 | 40.01490 | 24.80332 | 41040 ft | 507 kts | 132° |
| 2026-05-05 16:13 | 39.96734 | 24.87061 | 41042 ft | 507 kts | 132° |
| 2026-05-05 16:14 | 39.87155 | 25.00574 | 41049 ft | 507 kts | 132° |
| 2026-05-05 16:15 | 39.77579 | 25.14025 | 41041 ft | 506 kts | 133° |
| 2026-05-05 16:16 | 39.67981 | 25.27448 | 41046 ft | 507 kts | 133° |
| 2026-05-05 16:17 | 39.60798 | 25.37454 | 41041 ft | 506 kts | 133° |
| 2026-05-05 16:18 | 39.53594 | 25.47454 | 41046 ft | 505 kts | 133° |
| 2026-05-05 16:19 | 39.46386 | 25.57428 | 41042 ft | 506 kts | 133° |
| 2026-05-05 16:19 | 39.39147 | 25.67414 | 41040 ft | 507 kts | 133° |
| 2026-05-05 16:20 | 39.29513 | 25.80651 | 41044 ft | 505 kts | 133° |
| 2026-05-05 16:22 | 39.18235 | 25.97884 | 41049 ft | 504 kts | 119° |
| 2026-05-05 16:23 | 39.11560 | 26.13814 | 41039 ft | 505 kts | 116° |
| 2026-05-05 16:23 | 39.06640 | 26.25756 | 41042 ft | 505 kts | 117° |
| 2026-05-05 16:24 | 39.03316 | 26.33715 | 41042 ft | 504 kts | 117° |
| 2026-05-05 16:25 | 38.98318 | 26.45622 | 41046 ft | 504 kts | 117° |
| 2026-05-05 16:25 | 38.93306 | 26.57520 | 41055 ft | 504 kts | 117° |
| 2026-05-05 16:26 | 38.86613 | 26.73342 | 41044 ft | 504 kts | 117° |
| 2026-05-05 16:27 | 38.83260 | 26.81238 | 41039 ft | 504 kts | 117° |
| 2026-05-05 16:27 | 38.79901 | 26.89129 | 41045 ft | 504 kts | 117° |
| 2026-05-05 16:28 | 38.76371 | 26.96802 | 41033 ft | 503 kts | 127° |
| 2026-05-05 16:28 | 38.71979 | 27.03793 | 41033 ft | 503 kts | 130° |
| 2026-05-05 16:29 | 38.67423 | 27.10613 | 41031 ft | 505 kts | 130° |
| 2026-05-05 16:29 | 38.62832 | 27.17417 | 41043 ft | 506 kts | 130° |
| 2026-05-05 16:30 | 38.58233 | 27.24247 | 41028 ft | 506 kts | 130° |
| 2026-05-05 16:30 | 38.53672 | 27.31030 | 41031 ft | 505 kts | 130° |
| 2026-05-05 16:31 | 38.49085 | 27.37845 | 41023 ft | 505 kts | 130° |
| 2026-05-05 16:31 | 38.44499 | 27.44644 | 41024 ft | 505 kts | 130° |
| 2026-05-05 16:32 | 38.39908 | 27.51439 | 41024 ft | 505 kts | 130° |
| 2026-05-05 16:32 | 38.35311 | 27.58226 | 41017 ft | 505 kts | 131° |
| 2026-05-05 16:33 | 38.30715 | 27.64997 | 41021 ft | 505 kts | 131° |
| 2026-05-05 16:33 | 38.26145 | 27.71716 | 41021 ft | 505 kts | 131° |
| 2026-05-05 16:34 | 38.21535 | 27.78478 | 41025 ft | 505 kts | 131° |
| 2026-05-05 16:34 | 38.16924 | 27.85227 | 41024 ft | 505 kts | 131° |
| 2026-05-05 16:35 | 38.12312 | 27.91964 | 41022 ft | 505 kts | 131° |
| 2026-05-05 16:35 | 38.07691 | 27.98699 | 41026 ft | 505 kts | 131° |
| 2026-05-05 16:36 | 38.03092 | 28.05390 | 41013 ft | 505 kts | 131° |
| 2026-05-05 16:36 | 37.98466 | 28.12104 | 41026 ft | 506 kts | 131° |
| 2026-05-05 16:37 | 37.93836 | 28.18809 | 41025 ft | 505 kts | 131° |
| 2026-05-05 16:37 | 37.89209 | 28.25497 | 41023 ft | 505 kts | 131° |
| 2026-05-05 16:38 | 37.84574 | 28.32183 | 41029 ft | 505 kts | 131° |
| 2026-05-05 16:38 | 37.79942 | 28.38852 | 41033 ft | 505 kts | 131° |
| 2026-05-05 16:39 | 37.75324 | 28.45486 | 41031 ft | 505 kts | 131° |
| 2026-05-05 16:39 | 37.70655 | 28.52178 | 41021 ft | 505 kts | 132° |
| 2026-05-05 16:40 | 37.66034 | 28.58790 | 41033 ft | 506 kts | 132° |
| 2026-05-05 16:40 | 37.61373 | 28.65444 | 41034 ft | 506 kts | 132° |
| 2026-05-05 16:41 | 37.56706 | 28.72093 | 41034 ft | 506 kts | 132° |
| 2026-05-05 16:41 | 37.52038 | 28.78731 | 41031 ft | 505 kts | 132° |
| 2026-05-05 16:42 | 37.47366 | 28.85359 | 41032 ft | 506 kts | 132° |
| 2026-05-05 16:42 | 37.42687 | 28.91985 | 41026 ft | 506 kts | 132° |
| 2026-05-05 16:43 | 37.38002 | 28.98606 | 41026 ft | 506 kts | 132° |
| 2026-05-05 16:43 | 37.33342 | 29.05178 | 41019 ft | 507 kts | 132° |
| 2026-05-05 16:44 | 37.28639 | 29.11797 | 41020 ft | 507 kts | 132° |
| 2026-05-05 16:44 | 37.23933 | 29.18403 | 41018 ft | 507 kts | 133° |
| 2026-05-05 16:45 | 37.19222 | 29.25008 | 41021 ft | 508 kts | 133° |
| 2026-05-05 16:45 | 37.14541 | 29.31558 | 41007 ft | 507 kts | 133° |
| 2026-05-05 16:46 | 37.09834 | 29.38129 | 41004 ft | 506 kts | 133° |
| 2026-05-05 16:46 | 37.05118 | 29.44698 | 41004 ft | 506 kts | 133° |
| 2026-05-05 16:47 | 37.00402 | 29.51254 | 40999 ft | 507 kts | 133° |
| 2026-05-05 16:47 | 36.95680 | 29.57805 | 41004 ft | 507 kts | 133° |
| 2026-05-05 16:48 | 36.90950 | 29.64354 | 41004 ft | 507 kts | 133° |
| 2026-05-05 16:48 | 36.86245 | 29.70857 | 41003 ft | 507 kts | 133° |
| 2026-05-05 16:49 | 36.81510 | 29.77389 | 41002 ft | 507 kts | 133° |
| 2026-05-05 16:49 | 36.76763 | 29.83925 | 41004 ft | 508 kts | 133° |
| 2026-05-05 16:50 | 36.72016 | 29.90450 | 40993 ft | 507 kts | 133° |
| 2026-05-05 16:50 | 36.67306 | 29.96909 | 40994 ft | 506 kts | 133° |
| 2026-05-05 16:51 | 36.62558 | 30.03409 | 40993 ft | 506 kts | 133° |
| 2026-05-05 16:51 | 36.57812 | 30.09890 | 40993 ft | 506 kts | 133° |
| 2026-05-05 16:52 | 36.53062 | 30.16365 | 40993 ft | 506 kts | 134° |
| 2026-05-05 16:52 | 36.48338 | 30.22793 | 40990 ft | 506 kts | 134° |
| 2026-05-05 16:53 | 36.43584 | 30.29249 | 40985 ft | 505 kts | 134° |
| 2026-05-05 16:53 | 36.38831 | 30.35689 | 40984 ft | 505 kts | 134° |
| 2026-05-05 16:54 | 36.34080 | 30.42114 | 40968 ft | 505 kts | 134° |
| 2026-05-05 16:54 | 36.29314 | 30.48549 | 40983 ft | 507 kts | 134° |
| 2026-05-05 16:55 | 36.24539 | 30.54982 | 40981 ft | 507 kts | 134° |
| 2026-05-05 16:55 | 36.19763 | 30.61404 | 40980 ft | 507 kts | 134° |
| 2026-05-05 16:56 | 36.15011 | 30.67781 | 40978 ft | 507 kts | 134° |
| 2026-05-05 16:56 | 36.10227 | 30.74189 | 40981 ft | 507 kts | 134° |
| 2026-05-05 16:57 | 36.05843 | 30.78934 | 40981 ft | 502 kts | 149° |
| 2026-05-05 16:57 | 36.02799 | 30.81006 | 40981 ft | 497 kts | 160° |
| 2026-05-05 16:57 | 35.99549 | 30.82401 | 40980 ft | 493 kts | 167° |
| 2026-05-05 16:58 | 35.96394 | 30.84116 | 40989 ft | 500 kts | 153° |
| 2026-05-05 16:58 | 35.93519 | 30.86566 | 40985 ft | 503 kts | 141° |
| 2026-05-05 16:58 | 35.91051 | 30.89633 | 40984 ft | 506 kts | 130° |
| 2026-05-05 16:58 | 35.89073 | 30.93234 | 40988 ft | 507 kts | 118° |
| 2026-05-05 16:59 | 35.85947 | 31.01044 | 40985 ft | 509 kts | 116° |
| 2026-05-05 16:59 | 35.82881 | 31.08871 | 40985 ft | 510 kts | 116° |
| 2026-05-05 17:00 | 35.79764 | 31.16729 | 40988 ft | 510 kts | 116° |
| 2026-05-05 17:00 | 35.76634 | 31.24575 | 40978 ft | 510 kts | 117° |
| 2026-05-05 17:01 | 35.75067 | 31.28493 | 40757 ft | 509 kts | 117° |
| 2026-05-05 17:01 | 35.73505 | 31.32390 | 40531 ft | 507 kts | 117° |
| 2026-05-05 17:01 | 35.71945 | 31.36280 | 40288 ft | 507 kts | 117° |
| 2026-05-05 17:01 | 35.70383 | 31.40168 | 40048 ft | 507 kts | 117° |
| 2026-05-05 17:02 | 35.68821 | 31.44051 | 39831 ft | 507 kts | 117° |
| 2026-05-05 17:02 | 35.67252 | 31.47947 | 39607 ft | 508 kts | 117° |
| 2026-05-05 17:02 | 35.65684 | 31.51836 | 39371 ft | 508 kts | 117° |
| 2026-05-05 17:02 | 35.64111 | 31.55733 | 39153 ft | 508 kts | 117° |
| 2026-05-05 17:03 | 35.62566 | 31.59558 | 38865 ft | 503 kts | 117° |
| 2026-05-05 17:03 | 35.61005 | 31.63415 | 38385 ft | 502 kts | 117° |
| 2026-05-05 17:03 | 35.59456 | 31.67239 | 37883 ft | 500 kts | 117° |
| 2026-05-05 17:03 | 35.57908 | 31.71056 | 37413 ft | 497 kts | 117° |
| 2026-05-05 17:04 | 35.56370 | 31.74843 | 36943 ft | 495 kts | 117° |
| 2026-05-05 17:04 | 35.54837 | 31.78615 | 36467 ft | 492 kts | 116° |
| 2026-05-05 17:04 | 35.53308 | 31.82370 | 36002 ft | 491 kts | 117° |
| 2026-05-05 17:04 | 35.51780 | 31.86119 | 35520 ft | 489 kts | 117° |
| 2026-05-05 17:05 | 35.50261 | 31.89845 | 35039 ft | 488 kts | 117° |
| 2026-05-05 17:05 | 35.48739 | 31.93572 | 34551 ft | 486 kts | 116° |
| 2026-05-05 17:05 | 35.47236 | 31.97247 | 33678 ft | 492 kts | 117° |
| 2026-05-05 17:05 | 35.45685 | 32.01036 | 32634 ft | 500 kts | 117° |
| 2026-05-05 17:06 | 35.44114 | 32.04872 | 31628 ft | 506 kts | 117° |
| 2026-05-05 17:06 | 35.42521 | 32.08754 | 30643 ft | 511 kts | 118° |
| 2026-05-05 17:06 | 35.40925 | 32.12640 | 29824 ft | 510 kts | 118° |
| 2026-05-05 17:06 | 35.39331 | 32.16516 | 29081 ft | 506 kts | 118° |
| 2026-05-05 17:07 | 35.37754 | 32.20347 | 28384 ft | 501 kts | 118° |
| 2026-05-05 17:07 | 35.36210 | 32.24094 | 27700 ft | 496 kts | 118° |
| 2026-05-05 17:07 | 35.34660 | 32.27851 | 26992 ft | 492 kts | 118° |
| 2026-05-05 17:07 | 35.33119 | 32.31580 | 26299 ft | 488 kts | 118° |
| 2026-05-05 17:08 | 35.31589 | 32.35279 | 25596 ft | 485 kts | 118° |
| 2026-05-05 17:08 | 35.30066 | 32.38958 | 24892 ft | 482 kts | 117° |
| 2026-05-05 17:08 | 35.28547 | 32.42624 | 24174 ft | 480 kts | 117° |
| 2026-05-05 17:08 | 35.27056 | 32.46215 | 23449 ft | 478 kts | 117° |
| 2026-05-05 17:09 | 35.25552 | 32.49836 | 22672 ft | 475 kts | 117° |
| 2026-05-05 17:09 | 35.24062 | 32.53420 | 21956 ft | 470 kts | 117° |
| 2026-05-05 17:09 | 35.22587 | 32.56965 | 21255 ft | 465 kts | 117° |
| 2026-05-05 17:09 | 35.21123 | 32.60478 | 20561 ft | 460 kts | 117° |
| 2026-05-05 17:10 | 35.19675 | 32.63950 | 19877 ft | 456 kts | 117° |
| 2026-05-05 17:10 | 35.18236 | 32.67395 | 19191 ft | 452 kts | 117° |
| 2026-05-05 17:10 | 35.16808 | 32.70810 | 18521 ft | 449 kts | 117° |
| 2026-05-05 17:10 | 35.15394 | 32.74190 | 17802 ft | 444 kts | 116° |
| 2026-05-05 17:11 | 35.13996 | 32.77528 | 17142 ft | 438 kts | 116° |
| 2026-05-05 17:11 | 35.12619 | 32.80814 | 16505 ft | 431 kts | 116° |
| 2026-05-05 17:11 | 35.11260 | 32.84050 | 15867 ft | 425 kts | 116° |
| 2026-05-05 17:11 | 35.09938 | 32.87198 | 15252 ft | 419 kts | 116° |
| 2026-05-05 17:12 | 35.08617 | 32.90340 | 14637 ft | 413 kts | 116° |
| 2026-05-05 17:12 | 35.07361 | 32.93475 | 14032 ft | 407 kts | 111° |
| 2026-05-05 17:12 | 35.06365 | 32.96670 | 13438 ft | 400 kts | 108° |
| 2026-05-05 17:12 | 35.05449 | 32.99864 | 12760 ft | 395 kts | 107° |
| 2026-05-05 17:13 | 35.04553 | 33.03010 | 12195 ft | 389 kts | 108° |
| 2026-05-05 17:13 | 35.03672 | 33.06096 | 11650 ft | 382 kts | 108° |
| 2026-05-05 17:13 | 35.02801 | 33.09133 | 11110 ft | 376 kts | 108° |
| 2026-05-05 17:13 | 35.01943 | 33.12123 | 10578 ft | 370 kts | 108° |
| 2026-05-05 17:14 | 35.01105 | 33.15033 | 10359 ft | 355 kts | 108° |
| 2026-05-05 17:14 | 35.00301 | 33.17812 | 10240 ft | 340 kts | 108° |
| 2026-05-05 17:14 | 34.99532 | 33.20474 | 10115 ft | 325 kts | 108° |
| 2026-05-05 17:14 | 34.98793 | 33.23030 | 9988 ft | 313 kts | 108° |
| 2026-05-05 17:15 | 34.98080 | 33.25499 | 9777 ft | 305 kts | 108° |
| 2026-05-05 17:15 | 34.97380 | 33.27919 | 9459 ft | 300 kts | 108° |
| 2026-05-05 17:15 | 34.96697 | 33.30279 | 9129 ft | 297 kts | 108° |
| 2026-05-05 17:15 | 34.96016 | 33.32635 | 8789 ft | 294 kts | 108° |
| 2026-05-05 17:16 | 34.95339 | 33.34979 | 8430 ft | 291 kts | 108° |
| 2026-05-05 17:16 | 34.94662 | 33.37302 | 8068 ft | 289 kts | 108° |
| 2026-05-05 17:16 | 34.93991 | 33.39604 | 7723 ft | 287 kts | 108° |
| 2026-05-05 17:16 | 34.93324 | 33.41890 | 7371 ft | 285 kts | 108° |
| 2026-05-05 17:17 | 34.92663 | 33.44161 | 6995 ft | 284 kts | 108° |
| 2026-05-05 17:17 | 34.92009 | 33.46423 | 6654 ft | 281 kts | 108° |
| 2026-05-05 17:17 | 34.91354 | 33.48661 | 6316 ft | 279 kts | 109° |
| 2026-05-05 17:17 | 34.90706 | 33.50873 | 5955 ft | 276 kts | 109° |
| 2026-05-05 17:18 | 34.90063 | 33.53068 | 5574 ft | 274 kts | 109° |
| 2026-05-05 17:18 | 34.89424 | 33.55252 | 5188 ft | 273 kts | 109° |
| 2026-05-05 17:18 | 34.88789 | 33.57421 | 4832 ft | 270 kts | 109° |
| 2026-05-05 17:18 | 34.88161 | 33.59565 | 4440 ft | 268 kts | 109° |
| 2026-05-05 17:19 | 34.87548 | 33.61676 | 4134 ft | 267 kts | 108° |
| 2026-05-05 17:19 | 34.87030 | 33.63850 | 4020 ft | 267 kts | 96° |
| 2026-05-05 17:19 | 34.87261 | 33.66065 | 4011 ft | 265 kts | 66° |
| 2026-05-05 17:19 | 34.88141 | 33.68033 | 3944 ft | 265 kts | 56° |
| 2026-05-05 17:20 | 34.89183 | 33.69853 | 3742 ft | 257 kts | 54° |
| 2026-05-05 17:20 | 34.90094 | 33.71693 | 3540 ft | 250 kts | 62° |
| 2026-05-05 17:20 | 34.90855 | 33.73567 | 3350 ft | 243 kts | 62° |
| 2026-05-05 17:20 | 34.91609 | 33.75375 | 3177 ft | 235 kts | 63° |
| 2026-05-05 17:21 | 34.92285 | 33.77131 | 3051 ft | 228 kts | 64° |
| 2026-05-05 17:21 | 34.92996 | 33.78797 | 2965 ft | 214 kts | 49° |
| 2026-05-05 17:21 | 34.94142 | 33.79787 | 2964 ft | 197 kts | 16° |
| 2026-05-05 17:22 | 34.96542 | 33.78959 | 2689 ft | 182 kts | 317° |
| 2026-05-05 17:22 | 34.97154 | 33.77654 | 2502 ft | 176 kts | 281° |
| 2026-05-05 17:22 | 34.97081 | 33.76235 | 2461 ft | 161 kts | 258° |
| 2026-05-05 17:22 | 34.96740 | 33.74985 | 2319 ft | 150 kts | 253° |
| 2026-05-05 17:23 | 34.96379 | 33.73827 | 2153 ft | 144 kts | 246° |
| 2026-05-05 17:23 | 34.95755 | 33.72874 | 1927 ft | 143 kts | 232° |
| 2026-05-05 17:23 | 34.95105 | 33.71951 | 1748 ft | 143 kts | 231° |
| 2026-05-05 17:23 | 34.94427 | 33.71100 | 1534 ft | 136 kts | 225° |
| 2026-05-05 17:24 | 34.93778 | 33.70306 | 1334 ft | 128 kts | 228° |
| 2026-05-05 17:24 | 34.93175 | 33.69535 | 1142 ft | 124 kts | 228° |
| 2026-05-05 17:24 | 34.92582 | 33.68762 | 1007 ft | 125 kts | 228° |
| 2026-05-05 17:24 | 34.91973 | 33.67998 | 902 ft | 126 kts | 226° |
| 2026-05-05 17:25 | 34.91349 | 33.67237 | 815 ft | 127 kts | 225° |
| 2026-05-05 17:25 | 34.90936 | 33.66729 | 740 ft | 127 kts | 226° |
| 2026-05-05 17:25 | 34.90115 | 33.65724 | 570 ft | 126 kts | 224° |
| 2026-05-05 17:25 | 34.89494 | 33.64980 | 395 ft | 124 kts | 225° |
| 2026-05-05 17:26 | 34.88891 | 33.64248 | 239 ft | 122 kts | 226° |
| 2026-05-05 17:26 | 34.88293 | 33.63516 | 65 ft | 122 kts | 225° |
| 2026-05-05 17:26 | 34.87730 | 33.62823 | 31 ft | 95 kts | 225° |
| 2026-05-05 17:26 | 34.87377 | 33.62396 | 21 ft | 56 kts | 226° |
| 2026-05-05 17:27 | 34.87128 | 33.62091 | 32 ft | 45 kts | 225° |
| 2026-05-05 17:27 | 34.86993 | 33.61869 | 28 ft | 27 kts | 247° |
| 2026-05-05 17:27 | 34.86940 | 33.61653 | 27 ft | 26 kts | 255° |
| 2026-05-05 17:27 | 34.86897 | 33.61466 | 26 ft | 20 kts | 249° |
| 2026-05-05 17:28 | 34.86912 | 33.61355 | 23 ft | 4 kts | 339° |
| 2026-05-05 17:28 | 34.86935 | 33.61367 | 22 ft | 7 kts | 26° |
| 2026-05-05 17:28 | 34.86995 | 33.61429 | 22 ft | 15 kts | 44° |
| 2026-05-05 17:28 | 34.87076 | 33.61528 | 22 ft | 18 kts | 45° |
| 2026-05-05 17:29 | 34.87176 | 33.61649 | 24 ft | 22 kts | 45° |
| 2026-05-05 17:29 | 34.87292 | 33.61791 | 25 ft | 25 kts | 45° |
| 2026-05-05 17:29 | 34.87421 | 33.61948 | 21 ft | 28 kts | 45° |
| 2026-05-05 17:29 | 34.87518 | 33.62094 | 22 ft | 16 kts | 83° |
| 2026-05-05 17:30 | 34.87526 | 33.62215 | 24 ft | 15 kts | 54° |
| 2026-05-05 17:30 | 34.87617 | 33.62328 | 21 ft | 21 kts | 45° |
| 2026-05-05 17:30 | 34.87722 | 33.62457 | 24 ft | 23 kts | 45° |
| 2026-05-05 17:30 | 34.87839 | 33.62600 | 28 ft | 25 kts | 45° |
| 2026-05-05 17:31 | 34.87963 | 33.62750 | 27 ft | 27 kts | 45° |
| 2026-05-05 17:31 | 34.88101 | 33.62918 | 27 ft | 29 kts | 45° |
| 2026-05-05 17:31 | 34.88249 | 33.63098 | 23 ft | 27 kts | 45° |
| 2026-05-05 17:31 | 34.88365 | 33.63239 | 21 ft | 23 kts | 45° |
| 2026-05-05 17:32 | 34.88439 | 33.63312 | 21 ft | 9 kts | 8° |
| 2026-05-05 17:32 | 34.88473 | 33.63270 | 21 ft | 4 kts | 277° |
| 2026-05-05 17:32 | 34.88460 | 33.63231 | 20 ft | 7 kts | 233° |
| 2026-05-05 17:32 | 34.88444 | 33.63211 | 20 ft | 0 kts | 225° |